• Join FlightAware (Why Join?)
  • Login
  • US Flag 
04:45PM EST


 

Airport Tracker/Info


-or-


 

Live Flight TrackerFlight Track Log ✈ SKW6345 ✈ 19-Jun-2013 ✈ KSFO - KBZN

Flight Track Log - Related Links

Times and Time Zones

All times are in EDT time to prevent confusion due to time zone crossing. See the SKW6345 flight status page for this flight to view local times or setup timezone preferences in your user account.

Time Position Orientation Groundspeed Altitude Reporting Facility
EDT Latitude Longitude Course Direction KTS MPH feet Rate Location/Type
11:28AM 37.6333 -122.3500 38° Northeast 154 177 1,300  Level Northern Cal TRACON
11:29AM 37.6667 -122.3000 50° Northeast 198 228 3,900 2,520 Climbing Northern Cal TRACON
11:30AM 37.6281 -122.4083 120° Southeast  Level FlightAware Approximate
11:30AM 37.7167 -122.2500 38° Northeast 219 252 6,400  Level Northern Cal TRACON
11:31AM 37.6935 -122.2899 38° Northeast  Level FlightAware Approximate
11:31AM 37.7667 -122.1833 46° Northeast 274 315 8,800  Level Northern Cal TRACON
11:32AM 37.7986 -122.1848 38° Northeast  Level FlightAware Approximate
11:32AM 37.8333 -122.1333 31° Northeast 285 328 11,200  Level Northern Cal TRACON
11:33AM 37.9038 -122.0796 38° Northeast  Level FlightAware Approximate
11:33AM 37.9078 -122.0531 40° Northeast 303 349 13,000  Level Oakland Center
11:34AM 37.9833 -121.9836 36° Northeast 328 377 14,800 1,800 Climbing Oakland Center
11:35AM 38.0636 -121.9097 36° Northeast 350 403 16,700 1,740 Climbing Oakland Center
11:36AM 38.1442 -121.8331 37° Northeast 361 415 18,400 1,620 Climbing Oakland Center
11:37AM 38.2444 -121.7400 36° Northeast 371 427 20,100 1,440 Climbing Oakland Center
11:38AM 38.3308 -121.6583 37° Northeast 383 441 21,400 1,260 Climbing Oakland Center
11:39AM 38.4181 -121.5756 37° Northeast 390 449 22,800 1,080 Climbing Oakland Center
11:40AM 38.4933 -121.4672 48° Northeast 419 482 23,700 840 Climbing Oakland Center
11:41AM 38.5858 -121.3822 36° Northeast 407 468 24,600 840 Climbing Oakland Center
11:42AM 38.6833 -121.3061 31° Northeast 413 475 25,500 960 Climbing Oakland Center
11:43AM 38.7853 -121.2219 33° Northeast 417 480 26,600 1,020 Climbing Oakland Center
11:44AM 38.8850 -121.1397 33° Northeast 423 487 27,600 840 Climbing Oakland Center
11:45AM 38.9861 -121.0561 33° Northeast 427 491 28,400 840 Climbing Oakland Center
11:46AM 39.0875 -120.9719 33° Northeast 432 497 29,400 840 Climbing Oakland Center
11:47AM 39.1875 -120.8886 33° Northeast 430 495 30,200 780 Climbing Oakland Center
11:48AM 39.3083 -120.7864 33° Northeast 431 496 31,000 360 Climbing Oakland Center
11:49AM 39.4122 -120.6997 33° Northeast 440 506 31,000 60 Level Oakland Center
11:50AM 39.5200 -120.6097 33° Northeast 457 526 31,200 780 Climbing Oakland Center
11:51AM 39.6253 -120.5197 33° Northeast 453 521 32,600 840 Climbing Oakland Center
11:52AM 39.7261 -120.4344 33° Northeast 435 501 33,000 180 Climbing Oakland Center
11:53AM 39.8311 -120.3450 33° Northeast 447 514 33,000  Level Oakland Center
11:54AM 39.9381 -120.2544 33° Northeast 455 524 33,000  Level Oakland Center
11:55AM 40.0592 -120.1517 33° Northeast 470 541 33,000  Level Oakland Center
11:56AM 40.1681 -120.0567 34° Northeast 471 542 33,000  Level Oakland Center
11:57AM 40.2783 -119.9608 34° Northeast 472 543 33,000  Level Oakland Center
11:58AM 40.3908 -119.8642 33° Northeast 479 551 33,000  Level Oakland Center
11:59AM 40.4989 -119.7700 34° Northeast 470 541 33,000  Level Oakland Center
12:00PM 40.6036 -119.6806 33° Northeast 467 537 33,000  Level Oakland Center
12:01PM 40.7108 -119.5842 34° Northeast 468 539 33,000  Level Oakland Center
12:02PM 40.8375 -119.4728 34° Northeast 467 537 33,000  Level Oakland Center
12:03PM 40.9400 -119.3817 34° Northeast 465 535 33,000  Level Oakland Center
12:04PM 40.9922 -119.3367 33° Northeast 467 537 33,000  Level Salt Lake Center
12:05PM 41.1122 -119.2303 34° Northeast 464 534 33,000  Level Salt Lake Center
12:06PM 41.2150 -119.1375 34° Northeast 466 536 33,000  Level Salt Lake Center
12:07PM 41.3342 -119.0317 34° Northeast 462 532 33,000  Level Salt Lake Center
12:08PM 41.4367 -118.9372 35° Northeast 464 534 33,000  Level Salt Lake Center
12:09PM 41.5553 -118.8311 34° Northeast 460 529 33,000  Level Salt Lake Center
12:10PM 41.6572 -118.7383 34° Northeast 461 531 33,000  Level Salt Lake Center
12:11PM 41.7756 -118.6292 35° Northeast 461 531 33,000  Level Salt Lake Center
12:12PM 41.8781 -118.5356 34° Northeast 462 532 33,000  Level Salt Lake Center
12:13PM 41.9792 -118.4433 34° Northeast 459 528 33,000  Level Salt Lake Center
12:14PM 42.0969 -118.3331 35° Northeast 461 531 33,000  Level Salt Lake Center
12:15PM 42.1983 -118.2381 35° Northeast 462 532 33,000  Level Salt Lake Center
12:16PM 42.3158 -118.1278 35° Northeast 461 531 33,000  Level Salt Lake Center
12:17PM 42.4161 -118.0336 35° Northeast 456 525 33,000  Level Salt Lake Center
12:18PM 42.5325 -117.9242 35° Northeast 453 521 33,000  Level Salt Lake Center
12:19PM 42.6206 -117.8122 43° Northeast 454 522 33,000  Level Salt Lake Center
12:21PM 42.7050 -117.6581 53° Northeast 454 522 33,000  Level Salt Lake Center
12:22PM 42.7707 -117.5224 52° Northeast  Level FlightAware Approximate
12:22PM 42.7758 -117.5261 52° Northeast 453 521 33,000  Level Salt Lake Center
12:23PM 42.8547 -117.3781 54° Northeast 451 519 33,000  Level Salt Lake Center
12:24PM 42.9322 -117.2344 54° Northeast 454 522 33,000  Level Salt Lake Center
12:25PM 43.0106 -117.0886 54° Northeast 456 525 33,000  Level Salt Lake Center
12:26PM 43.0825 -116.9531 54° Northeast 457 526 33,000  Level Salt Lake Center
12:27PM 43.1594 -116.8072 54° Northeast 452 520 33,000  Level Salt Lake Center
12:28PM 43.2378 -116.6592 54° Northeast 456 525 33,000  Level Salt Lake Center
12:29PM 43.3153 -116.5114 54° Northeast 457 526 33,000  Level Salt Lake Center
12:30PM 43.3925 -116.3642 54° Northeast 454 522 33,000  Level Salt Lake Center
12:31PM 43.4697 -116.2150 54° Northeast 459 528 33,000  Level Salt Lake Center
12:32PM 43.5419 -116.0756 54° Northeast 458 527 33,000  Level Salt Lake Center
12:33PM 43.6189 -115.9256 55° Northeast 462 532 33,000  Level Salt Lake Center
12:34PM 43.6956 -115.7758 55° Northeast 456 525 33,000  Level Salt Lake Center
12:35PM 43.7717 -115.6250 55° Northeast 458 527 33,000  Level Salt Lake Center
12:36PM 43.8472 -115.4753 55° Northeast 456 525 33,000  Level Salt Lake Center
12:37PM 43.9169 -115.3361 55° Northeast 457 526 33,000  Level Salt Lake Center
12:38PM 43.9933 -115.1839 55° Northeast 458 527 33,000  Level Salt Lake Center
12:39PM 44.0694 -115.0314 55° Northeast 460 529 33,000  Level Salt Lake Center
12:40PM 44.1439 -114.8786 56° Northeast 465 535 33,000  Level Salt Lake Center
12:41PM 44.2147 -114.7372 55° Northeast 467 537 33,000  Level Salt Lake Center
12:42PM 44.2967 -114.5675 56° Northeast 471 542 33,000  Level Salt Lake Center
12:43PM 44.3686 -114.4225 55° Northeast 473 544 33,000  Level Salt Lake Center
12:44PM 44.4506 -114.2525 56° Northeast 473 544 33,000  Level Salt Lake Center
12:45PM 44.5192 -114.1064 57° Northeast 470 541 33,000  Level Salt Lake Center
12:46PM 44.6017 -113.9364 56° Northeast 471 542 33,000 -180 Level Salt Lake Center
12:47PM 44.6686 -113.7900 57° Northeast 469 540 32,700 -360 Descending Salt Lake Center
12:48PM 44.7508 -113.6144 57° Northeast 478 550 32,300 -360 Descending Salt Lake Center
12:49PM 44.8236 -113.4628 56° Northeast 485 558 32,000 -180 Descending Salt Lake Center
12:50PM 44.8964 -113.3117 56° Northeast 486 559 32,000  Level Salt Lake Center
12:52PM 44.9769 -113.1342 57° Northeast 482 555 32,000  Level Salt Lake Center
12:53PM 45.0497 -112.9825 56° Northeast 485 558 32,000  Level Salt Lake Center
12:54PM 45.1314 -112.8039 57° Northeast 485 558 32,000  Level Salt Lake Center
12:55PM 45.2011 -112.6519 57° Northeast 480 552 32,000 -1,020 Level Salt Lake Center
12:56PM 45.2797 -112.4708 58° Northeast 483 556 29,900 -2,460 Descending Salt Lake Center
12:57PM 45.3403 -112.3139 61° Northeast 473 544 27,000 -3,120 Descending Salt Lake Center
12:58PM 45.4058 -112.1442 61° Northeast 449 517 23,600 -3,180 Descending Salt Lake Center
12:59PM 45.4631 -111.9981 61° Northeast 426 490 20,600 -3,000 Descending Salt Lake Center
01:00PM 45.5161 -111.8589 61° Northeast 405 466 17,500 -2,640 Descending Salt Lake Center
01:01PM 45.5658 -111.7281 61° Northeast 384 442 15,200 -2,160 Descending Salt Lake Center
01:02PM 45.6133 -111.6042 61° Northeast 364 419 13,100 -1,080 Descending Salt Lake Center
01:03PM 45.6350 -111.4903 75° East 312 359 13,000 -660 Descending Salt Lake Center
01:04PM 45.6539 -111.3889 75° East 279 321 11,800 -960 Descending Salt Lake Center
01:05PM 45.6731 -111.2867 75° East 227 261 11,100 -720 Descending Salt Lake Center